Terminal Aerodrome Forecast
Issued by NWS

Home | Current Version | Previous Version | Text Only | Print | Product List | Glossary On
Versions: 1 2 3 4 5 6 7 8 9 10 11 12
074
FTUS43 KLSX 250531
TAFUIN
TAF
KUIN 250531Z 2506/2606 32012G17KT P6SM FEW250
     FM251000 33009KT P6SM FEW250
     FM252300 29004KT P6SM SKC=

USA.gov is the U.S. government's official web portal to all federal, state and local government web resources and services.